sensor_id;sensor_type;location;lat;lon;timestamp;P1;durP1;ratioP1;P2;durP2;ratioP2
35919;SDS011;36160;53.370;-6.196;2022-12-07T00:00:41;11.95;;;4.80;;
35919;SDS011;36160;53.370;-6.196;2022-12-07T00:03:07;10.85;;;4.53;;
35919;SDS011;36160;53.370;-6.196;2022-12-07T00:05:32;15.43;;;5.22;;
35919;SDS011;36160;53.370;-6.196;2022-12-07T00:07:58;13.52;;;4.00;;
35919;SDS011;36160;53.370;-6.196;2022-12-07T00:10:24;20.15;;;7.10;;
35919;SDS011;36160;53.370;-6.196;2022-12-07T00:12:49;9.00;;;4.22;;
35919;SDS011;36160;53.370;-6.196;2022-12-07T00:15:15;13.80;;;4.97;;
35919;SDS011;36160;53.370;-6.196;2022-12-07T00:17:41;19.42;;;4.80;;
35919;SDS011;36160;53.370;-6.196;2022-12-07T00:20:06;13.40;;;5.10;;
35919;SDS011;36160;53.370;-6.196;2022-12-07T00:22:32;18.42;;;6.18;;
35919;SDS011;36160;53.370;-6.196;2022-12-07T00:24:58;12.52;;;5.53;;
35919;SDS011;36160;53.370;-6.196;2022-12-07T00:27:24;11.18;;;5.45;;
35919;SDS011;36160;53.370;-6.196;2022-12-07T00:29:49;15.00;;;5.78;;
35919;SDS011;36160;53.370;-6.196;2022-12-07T00:32:15;17.65;;;5.55;;
35919;SDS011;36160;53.370;-6.196;2022-12-07T00:34:40;13.25;;;5.07;;
35919;SDS011;36160;53.370;-6.196;2022-12-07T00:37:06;13.63;;;5.97;;
35919;SDS011;36160;53.370;-6.196;2022-12-07T00:39:32;13.25;;;6.93;;
35919;SDS011;36160;53.370;-6.196;2022-12-07T00:41:57;20.30;;;7.32;;
35919;SDS011;36160;53.370;-6.196;2022-12-07T00:44:23;16.27;;;6.20;;
35919;SDS011;36160;53.370;-6.196;2022-12-07T00:46:49;15.30;;;6.03;;
35919;SDS011;36160;53.370;-6.196;2022-12-07T00:49:14;15.70;;;6.50;;
35919;SDS011;36160;53.370;-6.196;2022-12-07T00:51:40;12.70;;;5.18;;
35919;SDS011;36160;53.370;-6.196;2022-12-07T00:54:06;15.77;;;7.18;;
35919;SDS011;36160;53.370;-6.196;2022-12-07T00:56:32;15.20;;;5.32;;
35919;SDS011;36160;53.370;-6.196;2022-12-07T00:58:58;11.20;;;6.03;;
35919;SDS011;36160;53.370;-6.196;2022-12-07T01:01:26;14.88;;;5.95;;
35919;SDS011;36160;53.370;-6.196;2022-12-07T01:03:53;20.85;;;6.57;;
35919;SDS011;36160;53.370;-6.196;2022-12-07T01:06:20;14.20;;;5.78;;
35919;SDS011;36160;53.370;-6.196;2022-12-07T01:08:47;16.55;;;6.28;;
35919;SDS011;36160;53.370;-6.196;2022-12-07T01:11:14;19.77;;;6.72;;
35919;SDS011;36160;53.370;-6.196;2022-12-07T01:13:42;15.85;;;6.45;;
35919;SDS011;36160;53.370;-6.196;2022-12-07T01:16:10;14.38;;;5.38;;
35919;SDS011;36160;53.370;-6.196;2022-12-07T01:18:38;19.75;;;6.80;;
35919;SDS011;36160;53.370;-6.196;2022-12-07T01:23:31;22.55;;;6.57;;
35919;SDS011;36160;53.370;-6.196;2022-12-07T01:26:00;15.85;;;6.85;;
35919;SDS011;36160;53.370;-6.196;2022-12-07T01:28:27;14.07;;;6.80;;
35919;SDS011;36160;53.370;-6.196;2022-12-07T01:30:57;25.10;;;7.93;;
35919;SDS011;36160;53.370;-6.196;2022-12-07T01:33:24;19.95;;;8.45;;
35919;SDS011;36160;53.370;-6.196;2022-12-07T01:35:51;16.30;;;6.47;;
35919;SDS011;36160;53.370;-6.196;2022-12-07T01:38:16;23.52;;;6.95;;
35919;SDS011;36160;53.370;-6.196;2022-12-07T01:40:42;16.75;;;6.55;;
35919;SDS011;36160;53.370;-6.196;2022-12-07T01:43:17;11.80;;;5.00;;
35919;SDS011;36160;53.370;-6.196;2022-12-07T01:45:45;16.02;;;5.80;;
35919;SDS011;36160;53.370;-6.196;2022-12-07T01:48:11;14.38;;;4.55;;
35919;SDS011;36160;53.370;-6.196;2022-12-07T01:50:40;12.57;;;6.13;;
35919;SDS011;36160;53.370;-6.196;2022-12-07T01:53:08;11.48;;;4.85;;
35919;SDS011;36160;53.370;-6.196;2022-12-07T01:55:37;12.15;;;4.85;;
35919;SDS011;36160;53.370;-6.196;2022-12-07T01:58:06;8.75;;;5.28;;
35919;SDS011;36160;53.370;-6.196;2022-12-07T02:00:32;14.40;;;4.63;;
35919;SDS011;36160;53.370;-6.196;2022-12-07T02:03:06;10.30;;;4.47;;
35919;SDS011;36160;53.370;-6.196;2022-12-07T02:05:41;16.67;;;5.18;;
35919;SDS011;36160;53.370;-6.196;2022-12-07T02:08:08;10.65;;;5.18;;
35919;SDS011;36160;53.370;-6.196;2022-12-07T02:10:36;23.35;;;7.57;;
35919;SDS011;36160;53.370;-6.196;2022-12-07T02:13:12;11.55;;;6.18;;
35919;SDS011;36160;53.370;-6.196;2022-12-07T02:27:20;22.67;;;5.57;;
35919;SDS011;36160;53.370;-6.196;2022-12-07T02:30:08;28.92;;;6.65;;
35919;SDS011;36160;53.370;-6.196;2022-12-07T02:35:34;13.82;;;6.60;;
35919;SDS011;36160;53.370;-6.196;2022-12-07T02:38:17;8.85;;;5.10;;
35919;SDS011;36160;53.370;-6.196;2022-12-07T02:46:01;10.52;;;4.78;;
35919;SDS011;36160;53.370;-6.196;2022-12-07T02:48:36;10.25;;;5.00;;
35919;SDS011;36160;53.370;-6.196;2022-12-07T02:51:03;16.88;;;5.70;;
35919;SDS011;36160;53.370;-6.196;2022-12-07T02:53:33;14.65;;;5.32;;
35919;SDS011;36160;53.370;-6.196;2022-12-07T02:56:10;11.70;;;5.60;;
35919;SDS011;36160;53.370;-6.196;2022-12-07T03:01:55;12.30;;;5.30;;
35919;SDS011;36160;53.370;-6.196;2022-12-07T03:04:46;15.70;;;6.13;;
35919;SDS011;36160;53.370;-6.196;2022-12-07T03:07:38;15.18;;;5.63;;
35919;SDS011;36160;53.370;-6.196;2022-12-07T03:15:26;13.38;;;4.93;;
35919;SDS011;36160;53.370;-6.196;2022-12-07T03:17:52;17.88;;;5.13;;
35919;SDS011;36160;53.370;-6.196;2022-12-07T03:20:21;13.13;;;5.35;;
35919;SDS011;36160;53.370;-6.196;2022-12-07T03:22:49;14.73;;;6.22;;
35919;SDS011;36160;53.370;-6.196;2022-12-07T03:25:17;16.02;;;5.60;;
35919;SDS011;36160;53.370;-6.196;2022-12-07T03:27:44;12.77;;;5.40;;
35919;SDS011;36160;53.370;-6.196;2022-12-07T03:30:22;17.73;;;4.75;;
35919;SDS011;36160;53.370;-6.196;2022-12-07T03:32:53;13.10;;;4.80;;
35919;SDS011;36160;53.370;-6.196;2022-12-07T03:35:31;19.00;;;5.20;;
35919;SDS011;36160;53.370;-6.196;2022-12-07T03:40:47;17.52;;;6.05;;
35919;SDS011;36160;53.370;-6.196;2022-12-07T03:43:31;17.23;;;4.90;;
35919;SDS011;36160;53.370;-6.196;2022-12-07T03:48:42;13.70;;;4.97;;
35919;SDS011;36160;53.370;-6.196;2022-12-07T03:53:48;19.58;;;5.53;;
35919;SDS011;36160;53.370;-6.196;2022-12-07T03:56:34;13.07;;;5.38;;
35919;SDS011;36160;53.370;-6.196;2022-12-07T03:59:01;16.50;;;4.60;;
35919;SDS011;36160;53.370;-6.196;2022-12-07T04:01:27;11.48;;;4.45;;
35919;SDS011;36160;53.370;-6.196;2022-12-07T04:03:53;19.65;;;7.10;;
35919;SDS011;36160;53.370;-6.196;2022-12-07T04:06:18;17.88;;;5.03;;
35919;SDS011;36160;53.370;-6.196;2022-12-07T04:08:44;13.55;;;5.10;;
35919;SDS011;36160;53.370;-6.196;2022-12-07T04:11:10;16.02;;;6.03;;
35919;SDS011;36160;53.370;-6.196;2022-12-07T04:13:36;20.70;;;5.47;;
35919;SDS011;36160;53.370;-6.196;2022-12-07T04:16:22;10.60;;;4.78;;
35919;SDS011;36160;53.370;-6.196;2022-12-07T04:18:47;14.52;;;5.07;;
35919;SDS011;36160;53.370;-6.196;2022-12-07T04:21:13;14.35;;;5.55;;
35919;SDS011;36160;53.370;-6.196;2022-12-07T04:23:39;15.65;;;6.03;;
35919;SDS011;36160;53.370;-6.196;2022-12-07T04:26:04;15.75;;;6.45;;
35919;SDS011;36160;53.370;-6.196;2022-12-07T04:28:30;20.95;;;6.55;;
35919;SDS011;36160;53.370;-6.196;2022-12-07T04:30:56;15.32;;;5.63;;
35919;SDS011;36160;53.370;-6.196;2022-12-07T04:33:21;18.08;;;7.38;;
35919;SDS011;36160;53.370;-6.196;2022-12-07T04:35:47;13.63;;;6.90;;
35919;SDS011;36160;53.370;-6.196;2022-12-07T04:38:13;16.75;;;8.48;;
35919;SDS011;36160;53.370;-6.196;2022-12-07T04:40:38;17.95;;;9.30;;
35919;SDS011;36160;53.370;-6.196;2022-12-07T04:43:04;19.63;;;9.38;;
35919;SDS011;36160;53.370;-6.196;2022-12-07T04:45:30;15.88;;;8.27;;
35919;SDS011;36160;53.370;-6.196;2022-12-07T04:47:55;23.35;;;8.45;;
35919;SDS011;36160;53.370;-6.196;2022-12-07T04:50:21;22.85;;;9.00;;
35919;SDS011;36160;53.370;-6.196;2022-12-07T04:52:46;12.13;;;6.90;;
35919;SDS011;36160;53.370;-6.196;2022-12-07T04:55:12;20.13;;;7.40;;
35919;SDS011;36160;53.370;-6.196;2022-12-07T04:57:38;16.75;;;6.95;;
35919;SDS011;36160;53.370;-6.196;2022-12-07T05:00:04;15.95;;;7.75;;
35919;SDS011;36160;53.370;-6.196;2022-12-07T05:02:30;17.60;;;7.90;;
35919;SDS011;36160;53.370;-6.196;2022-12-07T05:04:55;14.82;;;7.43;;
35919;SDS011;36160;53.370;-6.196;2022-12-07T05:07:21;20.08;;;8.68;;
35919;SDS011;36160;53.370;-6.196;2022-12-07T05:09:47;21.92;;;8.38;;
35919;SDS011;36160;53.370;-6.196;2022-12-07T05:12:12;19.83;;;8.30;;
35919;SDS011;36160;53.370;-6.196;2022-12-07T05:14:38;14.73;;;8.57;;
35919;SDS011;36160;53.370;-6.196;2022-12-07T05:17:04;16.60;;;7.28;;
35919;SDS011;36160;53.370;-6.196;2022-12-07T05:19:29;16.60;;;10.55;;
35919;SDS011;36160;53.370;-6.196;2022-12-07T05:21:55;17.63;;;8.32;;
35919;SDS011;36160;53.370;-6.196;2022-12-07T05:24:20;13.40;;;7.53;;
35919;SDS011;36160;53.370;-6.196;2022-12-07T05:26:46;14.90;;;8.05;;
35919;SDS011;36160;53.370;-6.196;2022-12-07T05:29:13;15.73;;;7.55;;
35919;SDS011;36160;53.370;-6.196;2022-12-07T05:31:39;16.00;;;6.65;;
35919;SDS011;36160;53.370;-6.196;2022-12-07T05:34:05;15.60;;;6.35;;
35919;SDS011;36160;53.370;-6.196;2022-12-07T05:36:31;13.68;;;5.47;;
35919;SDS011;36160;53.370;-6.196;2022-12-07T05:38:57;24.40;;;6.72;;
35919;SDS011;36160;53.370;-6.196;2022-12-07T05:41:23;17.67;;;5.35;;
35919;SDS011;36160;53.370;-6.196;2022-12-07T05:44:07;13.43;;;5.32;;
35919;SDS011;36160;53.370;-6.196;2022-12-07T05:46:33;15.57;;;5.82;;
35919;SDS011;36160;53.370;-6.196;2022-12-07T05:48:59;11.48;;;5.45;;
35919;SDS011;36160;53.370;-6.196;2022-12-07T05:51:25;16.20;;;7.03;;
35919;SDS011;36160;53.370;-6.196;2022-12-07T05:53:51;21.95;;;5.97;;
35919;SDS011;36160;53.370;-6.196;2022-12-07T05:56:17;11.23;;;5.55;;
35919;SDS011;36160;53.370;-6.196;2022-12-07T05:58:43;12.65;;;5.47;;
35919;SDS011;36160;53.370;-6.196;2022-12-07T06:01:27;11.63;;;5.00;;
35919;SDS011;36160;53.370;-6.196;2022-12-07T06:03:53;11.32;;;6.70;;
35919;SDS011;36160;53.370;-6.196;2022-12-07T06:06:18;9.95;;;4.97;;
35919;SDS011;36160;53.370;-6.196;2022-12-07T06:08:44;18.10;;;6.28;;
35919;SDS011;36160;53.370;-6.196;2022-12-07T06:11:10;15.82;;;6.97;;
35919;SDS011;36160;53.370;-6.196;2022-12-07T06:13:54;16.33;;;5.82;;
35919;SDS011;36160;53.370;-6.196;2022-12-07T06:16:20;10.30;;;6.25;;
35919;SDS011;36160;53.370;-6.196;2022-12-07T06:18:46;15.95;;;6.18;;
35919;SDS011;36160;53.370;-6.196;2022-12-07T06:21:11;10.32;;;5.20;;
35919;SDS011;36160;53.370;-6.196;2022-12-07T06:23:38;9.32;;;4.47;;
35919;SDS011;36160;53.370;-6.196;2022-12-07T06:26:06;11.32;;;5.35;;
35919;SDS011;36160;53.370;-6.196;2022-12-07T06:28:32;11.32;;;5.40;;
35919;SDS011;36160;53.370;-6.196;2022-12-07T06:30:58;15.23;;;6.18;;
35919;SDS011;36160;53.370;-6.196;2022-12-07T06:33:24;10.38;;;6.53;;
35919;SDS011;36160;53.370;-6.196;2022-12-07T06:35:50;14.02;;;6.63;;
35919;SDS011;36160;53.370;-6.196;2022-12-07T06:38:16;15.20;;;6.70;;
35919;SDS011;36160;53.370;-6.196;2022-12-07T06:40:42;15.05;;;6.68;;
35919;SDS011;36160;53.370;-6.196;2022-12-07T06:43:08;17.05;;;7.00;;
35919;SDS011;36160;53.370;-6.196;2022-12-07T06:45:34;11.35;;;5.47;;
35919;SDS011;36160;53.370;-6.196;2022-12-07T06:48:00;10.60;;;6.40;;
35919;SDS011;36160;53.370;-6.196;2022-12-07T06:50:25;13.63;;;5.75;;
35919;SDS011;36160;53.370;-6.196;2022-12-07T06:52:51;16.92;;;5.85;;
35919;SDS011;36160;53.370;-6.196;2022-12-07T06:55:17;10.27;;;5.82;;
35919;SDS011;36160;53.370;-6.196;2022-12-07T06:57:43;9.65;;;5.70;;
35919;SDS011;36160;53.370;-6.196;2022-12-07T07:00:09;12.73;;;5.75;;
35919;SDS011;36160;53.370;-6.196;2022-12-07T07:02:35;11.23;;;5.97;;
35919;SDS011;36160;53.370;-6.196;2022-12-07T07:05:01;16.50;;;6.28;;
35919;SDS011;36160;53.370;-6.196;2022-12-07T07:07:27;18.27;;;6.85;;
35919;SDS011;36160;53.370;-6.196;2022-12-07T07:09:53;14.30;;;6.55;;
35919;SDS011;36160;53.370;-6.196;2022-12-07T07:12:19;10.85;;;5.90;;
35919;SDS011;36160;53.370;-6.196;2022-12-07T07:14:44;12.18;;;6.35;;
35919;SDS011;36160;53.370;-6.196;2022-12-07T07:17:10;12.80;;;6.28;;
35919;SDS011;36160;53.370;-6.196;2022-12-07T07:19:35;16.50;;;6.80;;
35919;SDS011;36160;53.370;-6.196;2022-12-07T07:22:02;10.30;;;6.10;;
35919;SDS011;36160;53.370;-6.196;2022-12-07T07:24:28;12.90;;;7.07;;
35919;SDS011;36160;53.370;-6.196;2022-12-07T07:26:54;16.73;;;7.82;;
35919;SDS011;36160;53.370;-6.196;2022-12-07T07:29:19;13.63;;;6.35;;
35919;SDS011;36160;53.370;-6.196;2022-12-07T07:31:45;13.05;;;6.22;;
35919;SDS011;36160;53.370;-6.196;2022-12-07T07:34:11;13.90;;;6.05;;
35919;SDS011;36160;53.370;-6.196;2022-12-07T07:36:36;20.27;;;6.30;;
35919;SDS011;36160;53.370;-6.196;2022-12-07T07:39:02;16.38;;;6.65;;
35919;SDS011;36160;53.370;-6.196;2022-12-07T07:41:28;14.10;;;6.13;;
35919;SDS011;36160;53.370;-6.196;2022-12-07T07:43:54;12.75;;;6.32;;
35919;SDS011;36160;53.370;-6.196;2022-12-07T07:46:20;14.27;;;6.28;;
35919;SDS011;36160;53.370;-6.196;2022-12-07T07:48:45;12.38;;;6.15;;
35919;SDS011;36160;53.370;-6.196;2022-12-07T07:51:11;13.45;;;6.57;;
35919;SDS011;36160;53.370;-6.196;2022-12-07T07:53:37;15.20;;;6.10;;
35919;SDS011;36160;53.370;-6.196;2022-12-07T07:56:02;15.68;;;6.63;;
35919;SDS011;36160;53.370;-6.196;2022-12-07T07:58:29;19.27;;;7.03;;
35919;SDS011;36160;53.370;-6.196;2022-12-07T08:00:54;19.08;;;8.13;;
35919;SDS011;36160;53.370;-6.196;2022-12-07T08:03:20;11.57;;;6.10;;
35919;SDS011;36160;53.370;-6.196;2022-12-07T08:05:45;13.05;;;6.13;;
35919;SDS011;36160;53.370;-6.196;2022-12-07T08:08:11;18.90;;;7.13;;
35919;SDS011;36160;53.370;-6.196;2022-12-07T08:10:37;15.13;;;6.40;;
35919;SDS011;36160;53.370;-6.196;2022-12-07T08:13:04;12.63;;;6.80;;
35919;SDS011;36160;53.370;-6.196;2022-12-07T08:18:01;14.98;;;6.07;;
35919;SDS011;36160;53.370;-6.196;2022-12-07T08:20:29;15.30;;;7.72;;
35919;SDS011;36160;53.370;-6.196;2022-12-07T08:22:55;19.65;;;8.88;;
35919;SDS011;36160;53.370;-6.196;2022-12-07T08:25:21;14.88;;;7.05;;
35919;SDS011;36160;53.370;-6.196;2022-12-07T08:27:49;17.95;;;7.35;;
35919;SDS011;36160;53.370;-6.196;2022-12-07T08:30:16;16.30;;;7.60;;
35919;SDS011;36160;53.370;-6.196;2022-12-07T08:32:42;17.92;;;6.95;;
35919;SDS011;36160;53.370;-6.196;2022-12-07T08:35:09;13.13;;;7.53;;
35919;SDS011;36160;53.370;-6.196;2022-12-07T08:37:35;15.48;;;6.43;;
35919;SDS011;36160;53.370;-6.196;2022-12-07T08:40:01;13.90;;;6.45;;
35919;SDS011;36160;53.370;-6.196;2022-12-07T08:42:28;12.05;;;6.50;;
35919;SDS011;36160;53.370;-6.196;2022-12-07T08:45:02;13.73;;;6.70;;
35919;SDS011;36160;53.370;-6.196;2022-12-07T08:47:31;14.52;;;7.18;;
35919;SDS011;36160;53.370;-6.196;2022-12-07T08:49:58;17.63;;;6.65;;
35919;SDS011;36160;53.370;-6.196;2022-12-07T08:52:28;12.70;;;5.88;;
35919;SDS011;36160;53.370;-6.196;2022-12-07T08:54:55;12.82;;;5.20;;
35919;SDS011;36160;53.370;-6.196;2022-12-07T08:57:21;16.50;;;5.20;;
35919;SDS011;36160;53.370;-6.196;2022-12-07T08:59:47;13.50;;;6.40;;
35919;SDS011;36160;53.370;-6.196;2022-12-07T09:02:13;22.52;;;5.97;;
35919;SDS011;36160;53.370;-6.196;2022-12-07T09:04:38;10.90;;;6.00;;
35919;SDS011;36160;53.370;-6.196;2022-12-07T09:07:04;12.80;;;4.15;;
35919;SDS011;36160;53.370;-6.196;2022-12-07T09:09:30;14.85;;;5.80;;
35919;SDS011;36160;53.370;-6.196;2022-12-07T09:11:55;11.50;;;4.25;;
35919;SDS011;36160;53.370;-6.196;2022-12-07T09:14:21;20.20;;;7.63;;
35919;SDS011;36160;53.370;-6.196;2022-12-07T09:16:47;13.75;;;4.28;;
35919;SDS011;36160;53.370;-6.196;2022-12-07T09:19:13;13.02;;;5.72;;
35919;SDS011;36160;53.370;-6.196;2022-12-07T09:21:39;9.88;;;4.68;;
35919;SDS011;36160;53.370;-6.196;2022-12-07T09:24:04;9.73;;;5.15;;
35919;SDS011;36160;53.370;-6.196;2022-12-07T09:26:31;14.60;;;6.93;;
35919;SDS011;36160;53.370;-6.196;2022-12-07T09:28:57;16.02;;;4.70;;
35919;SDS011;36160;53.370;-6.196;2022-12-07T09:31:22;13.55;;;4.95;;
35919;SDS011;36160;53.370;-6.196;2022-12-07T09:33:52;15.30;;;5.13;;
35919;SDS011;36160;53.370;-6.196;2022-12-07T09:36:21;13.45;;;5.32;;
35919;SDS011;36160;53.370;-6.196;2022-12-07T09:38:47;13.68;;;5.45;;
35919;SDS011;36160;53.370;-6.196;2022-12-07T09:41:12;18.42;;;5.03;;
35919;SDS011;36160;53.370;-6.196;2022-12-07T09:43:39;16.15;;;5.00;;
35919;SDS011;36160;53.370;-6.196;2022-12-07T09:46:05;10.48;;;4.15;;
35919;SDS011;36160;53.370;-6.196;2022-12-07T09:48:36;14.63;;;5.57;;
35919;SDS011;36160;53.370;-6.196;2022-12-07T09:51:11;11.43;;;4.15;;
35919;SDS011;36160;53.370;-6.196;2022-12-07T09:53:41;15.98;;;4.75;;
35919;SDS011;36160;53.370;-6.196;2022-12-07T09:56:08;8.10;;;4.80;;
35919;SDS011;36160;53.370;-6.196;2022-12-07T09:58:42;16.40;;;5.43;;
35919;SDS011;36160;53.370;-6.196;2022-12-07T10:03:36;17.10;;;6.50;;
35919;SDS011;36160;53.370;-6.196;2022-12-07T10:06:04;18.35;;;7.03;;
35919;SDS011;36160;53.370;-6.196;2022-12-07T10:08:31;13.40;;;6.20;;
35919;SDS011;36160;53.370;-6.196;2022-12-07T10:10:57;18.48;;;6.72;;
35919;SDS011;36160;53.370;-6.196;2022-12-07T10:13:45;13.55;;;5.85;;
35919;SDS011;36160;53.370;-6.196;2022-12-07T10:16:27;21.45;;;6.95;;
35919;SDS011;36160;53.370;-6.196;2022-12-07T10:19:22;19.77;;;6.32;;
35919;SDS011;36160;53.370;-6.196;2022-12-07T10:22:00;11.40;;;5.90;;
35919;SDS011;36160;53.370;-6.196;2022-12-07T10:24:40;15.77;;;5.93;;
35919;SDS011;36160;53.370;-6.196;2022-12-07T10:29:59;13.25;;;5.72;;
35919;SDS011;36160;53.370;-6.196;2022-12-07T10:32:33;16.10;;;6.10;;
35919;SDS011;36160;53.370;-6.196;2022-12-07T10:35:21;18.23;;;6.80;;
35919;SDS011;36160;53.370;-6.196;2022-12-07T10:37:47;17.73;;;7.18;;
35919;SDS011;36160;53.370;-6.196;2022-12-07T10:43:27;12.37;;;5.60;;
35919;SDS011;36160;53.370;-6.196;2022-12-07T10:56:53;19.35;;;7.50;;
35919;SDS011;36160;53.370;-6.196;2022-12-07T11:02:22;16.48;;;6.63;;
35919;SDS011;36160;53.370;-6.196;2022-12-07T11:05:20;15.15;;;5.88;;
35919;SDS011;36160;53.370;-6.196;2022-12-07T11:08:27;15.60;;;5.55;;
35919;SDS011;36160;53.370;-6.196;2022-12-07T11:11:12;14.35;;;6.82;;
35919;SDS011;36160;53.370;-6.196;2022-12-07T11:25:34;14.43;;;7.30;;
35919;SDS011;36160;53.370;-6.196;2022-12-07T11:31:18;21.85;;;5.95;;
35919;SDS011;36160;53.370;-6.196;2022-12-07T11:36:53;11.23;;;4.63;;
35919;SDS011;36160;53.370;-6.196;2022-12-07T11:42:01;14.98;;;6.13;;
35919;SDS011;36160;53.370;-6.196;2022-12-07T11:44:59;13.35;;;5.43;;
35919;SDS011;36160;53.370;-6.196;2022-12-07T11:50:33;14.27;;;5.45;;
35919;SDS011;36160;53.370;-6.196;2022-12-07T11:55:50;12.27;;;5.03;;
35919;SDS011;36160;53.370;-6.196;2022-12-07T12:03:55;11.52;;;4.45;;
35919;SDS011;36160;53.370;-6.196;2022-12-07T12:06:33;13.85;;;6.25;;
35919;SDS011;36160;53.370;-6.196;2022-12-07T12:09:04;9.23;;;4.47;;
35919;SDS011;36160;53.370;-6.196;2022-12-07T12:22:46;10.18;;;3.70;;
35919;SDS011;36160;53.370;-6.196;2022-12-07T12:25:23;15.73;;;4.63;;
35919;SDS011;36160;53.370;-6.196;2022-12-07T12:27:58;8.85;;;1.85;;
35919;SDS011;36160;53.370;-6.196;2022-12-07T12:30:35;21.75;;;7.60;;
35919;SDS011;36160;53.370;-6.196;2022-12-07T12:44:01;5.68;;;3.28;;
35919;SDS011;36160;53.370;-6.196;2022-12-07T12:51:47;7.95;;;1.88;;
35919;SDS011;36160;53.370;-6.196;2022-12-07T12:54:26;3.65;;;1.52;;
35919;SDS011;36160;53.370;-6.196;2022-12-07T12:57:00;7.03;;;2.75;;
35919;SDS011;36160;53.370;-6.196;2022-12-07T12:59:41;5.75;;;2.63;;
35919;SDS011;36160;53.370;-6.196;2022-12-07T13:04:58;3.40;;;1.85;;
35919;SDS011;36160;53.370;-6.196;2022-12-07T13:18:40;3.93;;;2.10;;
35919;SDS011;36160;53.370;-6.196;2022-12-07T13:26:20;3.40;;;1.90;;
35919;SDS011;36160;53.370;-6.196;2022-12-07T13:28:49;7.85;;;2.30;;
35919;SDS011;36160;53.370;-6.196;2022-12-07T13:36:58;8.93;;;3.80;;
35919;SDS011;36160;53.370;-6.196;2022-12-07T13:39:26;4.18;;;1.63;;
35919;SDS011;36160;53.370;-6.196;2022-12-07T13:41:54;6.60;;;2.08;;
35919;SDS011;36160;53.370;-6.196;2022-12-07T13:44:24;10.02;;;2.75;;
35919;SDS011;36160;53.370;-6.196;2022-12-07T13:51:47;17.40;;;7.07;;
35919;SDS011;36160;53.370;-6.196;2022-12-07T13:54:13;10.93;;;4.50;;
35919;SDS011;36160;53.370;-6.196;2022-12-07T13:56:40;28.23;;;2.85;;
35919;SDS011;36160;53.370;-6.196;2022-12-07T13:59:12;12.52;;;3.20;;
35919;SDS011;36160;53.370;-6.196;2022-12-07T14:01:44;5.28;;;2.65;;
35919;SDS011;36160;53.370;-6.196;2022-12-07T14:04:16;10.23;;;3.90;;
35919;SDS011;36160;53.370;-6.196;2022-12-07T14:06:50;7.85;;;2.10;;
35919;SDS011;36160;53.370;-6.196;2022-12-07T14:09:20;7.13;;;2.40;;
35919;SDS011;36160;53.370;-6.196;2022-12-07T14:11:55;8.32;;;2.63;;
35919;SDS011;36160;53.370;-6.196;2022-12-07T14:14:23;6.10;;;2.50;;
35919;SDS011;36160;53.370;-6.196;2022-12-07T14:16:55;5.47;;;2.40;;
35919;SDS011;36160;53.370;-6.196;2022-12-07T14:27:30;10.52;;;4.88;;
35919;SDS011;36160;53.370;-6.196;2022-12-07T14:30:01;8.07;;;2.90;;
35919;SDS011;36160;53.370;-6.196;2022-12-07T14:32:29;10.75;;;2.70;;
35919;SDS011;36160;53.370;-6.196;2022-12-07T14:37:27;9.18;;;2.10;;
35919;SDS011;36160;53.370;-6.196;2022-12-07T14:39:54;7.30;;;3.42;;
35919;SDS011;36160;53.370;-6.196;2022-12-07T14:42:20;5.30;;;2.38;;
35919;SDS011;36160;53.370;-6.196;2022-12-07T14:44:50;4.28;;;2.30;;
35919;SDS011;36160;53.370;-6.196;2022-12-07T14:47:16;9.38;;;2.03;;
35919;SDS011;36160;53.370;-6.196;2022-12-07T14:49:42;5.25;;;2.30;;
35919;SDS011;36160;53.370;-6.196;2022-12-07T14:52:11;5.05;;;2.00;;
35919;SDS011;36160;53.370;-6.196;2022-12-07T14:54:40;3.78;;;1.90;;
35919;SDS011;36160;53.370;-6.196;2022-12-07T14:57:08;6.25;;;2.00;;
35919;SDS011;36160;53.370;-6.196;2022-12-07T14:59:35;7.40;;;2.00;;
35919;SDS011;36160;53.370;-6.196;2022-12-07T15:02:00;7.18;;;2.45;;
35919;SDS011;36160;53.370;-6.196;2022-12-07T15:04:26;9.93;;;3.10;;
35919;SDS011;36160;53.370;-6.196;2022-12-07T15:06:58;8.38;;;2.50;;
35919;SDS011;36160;53.370;-6.196;2022-12-07T15:09:26;19.50;;;5.90;;
35919;SDS011;36160;53.370;-6.196;2022-12-07T15:11:52;7.53;;;3.67;;
35919;SDS011;36160;53.370;-6.196;2022-12-07T15:14:18;7.00;;;2.78;;
35919;SDS011;36160;53.370;-6.196;2022-12-07T15:16:44;5.72;;;2.75;;
35919;SDS011;36160;53.370;-6.196;2022-12-07T15:19:10;6.63;;;3.33;;
35919;SDS011;36160;53.370;-6.196;2022-12-07T15:21:42;12.05;;;4.03;;
35919;SDS011;36160;53.370;-6.196;2022-12-07T15:24:09;9.40;;;3.85;;
35919;SDS011;36160;53.370;-6.196;2022-12-07T15:26:35;15.88;;;4.22;;
35919;SDS011;36160;53.370;-6.196;2022-12-07T15:29:01;8.13;;;4.18;;
35919;SDS011;36160;53.370;-6.196;2022-12-07T15:31:27;10.13;;;4.25;;
35919;SDS011;36160;53.370;-6.196;2022-12-07T15:33:53;13.27;;;4.22;;
35919;SDS011;36160;53.370;-6.196;2022-12-07T15:36:26;10.85;;;4.05;;
35919;SDS011;36160;53.370;-6.196;2022-12-07T15:38:53;13.23;;;4.03;;
35919;SDS011;36160;53.370;-6.196;2022-12-07T15:41:20;8.68;;;3.42;;
35919;SDS011;36160;53.370;-6.196;2022-12-07T15:43:46;16.05;;;6.10;;
35919;SDS011;36160;53.370;-6.196;2022-12-07T15:46:31;19.38;;;7.65;;
35919;SDS011;36160;53.370;-6.196;2022-12-07T15:48:57;5.72;;;3.58;;
35919;SDS011;36160;53.370;-6.196;2022-12-07T15:51:23;6.60;;;3.35;;
35919;SDS011;36160;53.370;-6.196;2022-12-07T15:53:49;12.68;;;3.78;;
35919;SDS011;36160;53.370;-6.196;2022-12-07T15:56:15;16.60;;;4.95;;
35919;SDS011;36160;53.370;-6.196;2022-12-07T15:58:41;9.30;;;5.03;;
35919;SDS011;36160;53.370;-6.196;2022-12-07T16:01:10;23.45;;;9.40;;
35919;SDS011;36160;53.370;-6.196;2022-12-07T16:03:37;30.13;;;8.85;;
35919;SDS011;36160;53.370;-6.196;2022-12-07T16:06:03;26.00;;;9.07;;
35919;SDS011;36160;53.370;-6.196;2022-12-07T16:08:29;21.13;;;8.27;;
35919;SDS011;36160;53.370;-6.196;2022-12-07T16:10:55;24.20;;;8.73;;
35919;SDS011;36160;53.370;-6.196;2022-12-07T16:18:21;20.77;;;8.68;;
35919;SDS011;36160;53.370;-6.196;2022-12-07T16:20:48;24.80;;;9.55;;
35919;SDS011;36160;53.370;-6.196;2022-12-07T16:23:14;26.42;;;10.45;;
35919;SDS011;36160;53.370;-6.196;2022-12-07T16:25:40;26.17;;;9.00;;
35919;SDS011;36160;53.370;-6.196;2022-12-07T16:28:06;23.65;;;8.73;;
35919;SDS011;36160;53.370;-6.196;2022-12-07T16:30:33;12.20;;;5.43;;
35919;SDS011;36160;53.370;-6.196;2022-12-07T16:32:59;13.55;;;5.80;;
35919;SDS011;36160;53.370;-6.196;2022-12-07T16:35:24;17.17;;;7.82;;
35919;SDS011;36160;53.370;-6.196;2022-12-07T16:37:50;20.02;;;8.63;;
35919;SDS011;36160;53.370;-6.196;2022-12-07T16:40:16;18.15;;;8.90;;
35919;SDS011;36160;53.370;-6.196;2022-12-07T16:42:41;18.85;;;8.38;;
35919;SDS011;36160;53.370;-6.196;2022-12-07T16:45:07;20.10;;;8.68;;
35919;SDS011;36160;53.370;-6.196;2022-12-07T16:47:33;22.45;;;9.60;;
35919;SDS011;36160;53.370;-6.196;2022-12-07T16:50:05;20.30;;;9.98;;
35919;SDS011;36160;53.370;-6.196;2022-12-07T16:52:32;17.60;;;9.27;;
35919;SDS011;36160;53.370;-6.196;2022-12-07T16:54:58;15.13;;;8.50;;
35919;SDS011;36160;53.370;-6.196;2022-12-07T16:57:24;12.48;;;6.55;;
35919;SDS011;36160;53.370;-6.196;2022-12-07T16:59:50;19.70;;;8.70;;
35919;SDS011;36160;53.370;-6.196;2022-12-07T17:02:17;12.77;;;7.07;;
35919;SDS011;36160;53.370;-6.196;2022-12-07T17:04:42;16.92;;;6.88;;
35919;SDS011;36160;53.370;-6.196;2022-12-07T17:07:08;18.55;;;8.38;;
35919;SDS011;36160;53.370;-6.196;2022-12-07T17:09:34;13.13;;;6.03;;
35919;SDS011;36160;53.370;-6.196;2022-12-07T17:12:01;17.42;;;6.10;;
35919;SDS011;36160;53.370;-6.196;2022-12-07T17:14:26;12.98;;;6.10;;
35919;SDS011;36160;53.370;-6.196;2022-12-07T17:17:10;16.13;;;6.85;;
35919;SDS011;36160;53.370;-6.196;2022-12-07T17:19:36;19.38;;;9.00;;